createdAt,value
2019-04-13T00:01:49.196Z,98.10
2019-04-13T00:04:28.900Z,98.80
2019-04-13T00:06:48.147Z,98.80
2019-04-13T00:09:16.434Z,98.70
2019-04-13T00:12:01.513Z,98.60
2019-04-13T00:14:28.779Z,99.20
2019-04-13T00:16:55.773Z,99.30
2019-04-13T00:19:22.730Z,99.10
2019-04-13T00:21:49.922Z,99.60
2019-04-13T00:24:16.901Z,99.90
2019-04-13T00:26:43.808Z,99.80
2019-04-13T00:29:10.886Z,99.70
2019-04-13T00:31:37.785Z,99.80
2019-04-13T00:34:04.797Z,99.90
2019-04-13T00:36:31.770Z,99.90
2019-04-13T00:38:58.852Z,99.90
2019-04-13T00:41:25.746Z,99.90
2019-04-13T00:43:52.721Z,99.90
2019-04-13T00:46:19.586Z,99.90
2019-04-13T00:48:46.506Z,99.90
2019-04-13T00:51:13.484Z,99.90
2019-04-13T00:53:40.649Z,99.90
2019-04-13T00:56:07.577Z,99.90
2019-04-13T00:58:34.642Z,99.90
2019-04-13T01:01:01.774Z,99.90
2019-04-13T01:03:28.667Z,99.90
2019-04-13T01:05:55.864Z,99.90
2019-04-13T01:08:22.993Z,99.90
2019-04-13T01:10:49.897Z,99.90
2019-04-13T01:13:16.877Z,99.90
2019-04-13T01:15:44.348Z,99.90
2019-04-13T01:18:11.211Z,99.90
2019-04-13T01:20:38.374Z,99.90
2019-04-13T01:23:05.378Z,99.90
2019-04-13T01:25:32.280Z,99.90
2019-04-13T01:27:59.165Z,99.90
2019-04-13T01:30:26.043Z,99.90
2019-04-13T01:32:52.929Z,99.90
2019-04-13T01:35:19.918Z,99.90
2019-04-13T01:37:46.902Z,99.90
2019-04-13T01:40:14.004Z,99.90
2019-04-13T01:42:41.388Z,99.90
2019-04-13T01:45:08.524Z,99.90
2019-04-13T01:47:35.390Z,99.90
2019-04-13T01:50:02.698Z,99.90
2019-04-13T01:52:29.566Z,99.90
2019-04-13T01:54:56.577Z,99.90
2019-04-13T01:57:23.780Z,99.90
2019-04-13T01:59:50.854Z,99.90
2019-04-13T02:02:37.730Z,99.90
2019-04-13T02:05:44.563Z,99.90
2019-04-13T02:08:37.108Z,99.90
2019-04-13T02:11:10.099Z,99.90
2019-04-13T02:13:37.100Z,99.90
2019-04-13T02:16:04.222Z,99.90
2019-04-13T02:18:31.173Z,99.90
2019-04-13T02:20:58.137Z,99.90
2019-04-13T02:23:25.262Z,99.90
2019-04-13T02:25:52.308Z,99.90
2019-04-13T02:28:19.344Z,99.90
2019-04-13T02:30:46.203Z,99.90
2019-04-13T02:33:13.083Z,99.90
2019-04-13T02:35:39.947Z,99.90
2019-04-13T02:38:06.852Z,99.90
2019-04-13T02:40:34.222Z,99.90
2019-04-13T02:43:01.533Z,99.90
2019-04-13T02:45:28.521Z,99.90
2019-04-13T02:47:55.499Z,99.90
2019-04-13T02:50:22.373Z,99.90
2019-04-13T02:52:49.382Z,99.90
2019-04-13T02:55:16.244Z,99.90
2019-04-13T02:57:43.473Z,99.90
2019-04-13T03:00:12.054Z,99.90
2019-04-13T03:02:39.438Z,99.90
2019-04-13T03:05:08.254Z,99.90
2019-04-13T03:07:35.659Z,99.90
2019-04-13T03:10:03.402Z,99.90
2019-04-13T03:12:30.484Z,99.90
2019-04-13T03:14:57.558Z,99.90
2019-04-13T03:17:44.446Z,99.90
2019-04-13T03:20:21.426Z,99.90
2019-04-13T03:22:48.318Z,99.90
2019-04-13T03:25:15.328Z,99.90
2019-04-13T03:27:42.344Z,99.90
2019-04-13T03:30:10.189Z,99.90
2019-04-13T03:32:37.807Z,99.90
2019-04-13T03:35:05.046Z,99.90
2019-04-13T03:37:32.041Z,99.90
2019-04-13T03:39:58.937Z,99.90
2019-04-13T03:42:26.063Z,99.90
2019-04-13T03:44:52.975Z,99.90
2019-04-13T03:47:19.833Z,99.90
2019-04-13T03:49:46.738Z,99.90
2019-04-13T03:52:13.604Z,99.90
2019-04-13T03:54:40.499Z,99.90
2019-04-13T03:57:07.382Z,99.90
2019-04-13T03:59:34.393Z,99.90
2019-04-13T04:02:01.281Z,99.90
2019-04-13T04:04:28.180Z,99.90
2019-04-13T04:06:55.132Z,99.90
2019-04-13T04:09:22.059Z,99.90
2019-04-13T04:11:49.430Z,99.90
2019-04-13T04:14:16.513Z,99.90
2019-04-13T04:16:44.590Z,99.90
2019-04-13T04:19:11.577Z,99.90
2019-04-13T04:21:38.424Z,99.90
2019-04-13T04:24:12.080Z,99.90
2019-04-13T04:26:39.316Z,99.90
2019-04-13T04:29:06.330Z,99.90
2019-04-13T04:31:33.326Z,99.90
2019-04-13T04:34:00.237Z,99.90
2019-04-13T04:36:27.532Z,99.90
2019-04-13T04:38:54.398Z,99.90
2019-04-13T04:41:21.663Z,99.90
2019-04-13T04:43:49.651Z,99.90
2019-04-13T04:46:16.532Z,99.90
2019-04-13T04:48:43.538Z,99.90
2019-04-13T04:51:11.468Z,99.90
2019-04-13T04:53:38.665Z,99.90
2019-04-13T04:56:05.647Z,99.90
2019-04-13T04:58:32.874Z,99.90
2019-04-13T05:00:59.725Z,99.90
2019-04-13T05:03:26.642Z,99.90
2019-04-13T05:05:53.610Z,99.90
2019-04-13T05:08:20.498Z,99.90
2019-04-13T05:10:47.399Z,99.90
2019-04-13T05:13:14.424Z,99.90
2019-04-13T05:15:41.280Z,99.90
2019-04-13T05:18:08.228Z,99.90
2019-04-13T05:20:35.202Z,99.90
2019-04-13T05:23:02.668Z,99.90
2019-04-13T05:25:29.534Z,99.90
2019-04-13T05:27:56.684Z,99.90
2019-04-13T05:30:25.091Z,99.90
2019-04-13T05:32:52.118Z,99.90
2019-04-13T05:35:19.124Z,99.90
2019-04-13T05:37:46.357Z,99.90
2019-04-13T05:40:14.429Z,99.90
2019-04-13T05:42:41.303Z,99.90
2019-04-13T05:45:08.967Z,99.90
2019-04-13T05:47:35.818Z,99.90
2019-04-13T05:50:04.034Z,99.90
2019-04-13T05:52:30.896Z,99.90
2019-04-13T05:54:58.016Z,99.90
2019-04-13T05:57:25.987Z,99.90
2019-04-13T05:59:52.908Z,99.90
2019-04-13T06:02:19.980Z,99.90
2019-04-13T06:04:46.890Z,99.90
2019-04-13T06:07:13.786Z,99.90
2019-04-13T06:09:40.653Z,99.90
2019-04-13T06:12:10.155Z,99.90
2019-04-13T06:14:36.491Z,99.90
2019-04-13T06:17:03.819Z,99.90
2019-04-13T06:19:30.751Z,99.90
2019-04-13T06:21:57.659Z,99.90
2019-04-13T06:24:24.858Z,99.90
2019-04-13T06:26:51.972Z,99.90
2019-04-13T06:29:21.165Z,99.90
2019-04-13T06:32:10.308Z,99.90
2019-04-13T06:34:41.790Z,99.90
2019-04-13T06:37:12.365Z,99.90
2019-04-13T06:39:37.749Z,99.90
2019-04-13T06:42:04.832Z,99.90
2019-04-13T06:44:36.007Z,99.90
2019-04-13T06:47:01.051Z,99.90
2019-04-13T06:49:27.920Z,99.90
2019-04-13T06:51:54.831Z,99.90
2019-04-13T06:54:21.736Z,99.90
2019-04-13T06:56:49.759Z,99.90
2019-04-13T06:59:16.716Z,99.90
2019-04-13T07:01:44.066Z,99.90
2019-04-13T07:04:11.082Z,99.90
2019-04-13T07:06:47.132Z,99.90
2019-04-13T07:09:26.068Z,99.90
2019-04-13T07:12:08.766Z,99.90
2019-04-13T07:14:35.879Z,99.90
2019-04-13T07:17:22.545Z,99.90
2019-04-13T07:19:49.860Z,99.90
2019-04-13T07:22:17.106Z,99.90
2019-04-13T07:24:44.436Z,99.90
2019-04-13T07:27:11.516Z,99.90
2019-04-13T07:29:38.513Z,99.90
2019-04-13T07:32:06.455Z,99.90
2019-04-13T07:34:34.049Z,99.90
2019-04-13T07:37:01.921Z,99.90
2019-04-13T07:39:28.801Z,99.90
2019-04-13T07:41:55.697Z,99.90
2019-04-13T07:44:31.636Z,99.90
2019-04-13T07:47:16.922Z,99.90
2019-04-13T07:49:58.763Z,99.90
2019-04-13T07:52:29.119Z,99.90
2019-04-13T07:54:56.864Z,99.90
2019-04-13T07:57:23.876Z,99.90
2019-04-13T07:59:51.441Z,99.90
2019-04-13T08:02:18.751Z,99.90
2019-04-13T08:04:45.844Z,99.90
2019-04-13T08:07:13.029Z,99.90
2019-04-13T08:09:40.420Z,99.90
2019-04-13T08:12:27.300Z,99.90
2019-04-13T08:14:54.343Z,99.90
2019-04-13T08:17:25.242Z,99.90
2019-04-13T08:19:55.932Z,99.90
2019-04-13T08:22:24.222Z,99.90
2019-04-13T08:25:04.117Z,99.90
2019-04-13T08:27:31.226Z,99.90
2019-04-13T08:29:59.954Z,99.90
2019-04-13T08:32:29.616Z,99.90
2019-04-13T08:34:57.577Z,99.90
2019-04-13T08:37:25.402Z,99.90
2019-04-13T08:41:09.669Z,99.90
2019-04-13T08:42:25.994Z,99.90
2019-04-13T08:44:50.606Z,99.90
2019-04-13T08:47:18.798Z,99.90
2019-04-13T08:49:45.967Z,99.90
2019-04-13T08:52:12.847Z,99.90
2019-04-13T08:54:39.862Z,99.90
2019-04-13T08:57:07.055Z,99.90
2019-04-13T08:59:34.554Z,99.90
2019-04-13T09:02:02.658Z,99.90
2019-04-13T09:04:29.670Z,99.90
2019-04-13T09:06:56.551Z,99.90
2019-04-13T09:09:25.455Z,99.90
2019-04-13T09:11:53.561Z,99.90
2019-04-13T09:14:20.634Z,99.90
2019-04-13T09:16:47.806Z,99.90
2019-04-13T09:19:39.353Z,99.90
2019-04-13T09:22:24.400Z,99.90
2019-04-13T09:24:52.902Z,99.90
2019-04-13T09:27:20.078Z,99.90
2019-04-13T09:29:47.808Z,99.90
2019-04-13T09:32:14.952Z,99.80
2019-04-13T09:34:41.994Z,99.60
2019-04-13T09:37:08.854Z,99.90
2019-04-13T09:39:35.867Z,99.90
2019-04-13T09:42:02.832Z,97.10
2019-04-13T09:47:09.507Z,98.50
2019-04-13T09:49:37.542Z,96.00
2019-04-13T09:52:04.502Z,96.60
2019-04-13T09:54:31.423Z,97.90
2019-04-13T09:56:58.331Z,97.60
2019-04-13T09:59:25.511Z,96.10
2019-04-13T10:01:53.486Z,95.60
2019-04-13T10:04:20.346Z,97.80
2019-04-13T10:06:47.239Z,97.20
2019-04-13T10:09:14.170Z,96.50
2019-04-13T10:11:57.270Z,96.60
2019-04-13T10:14:36.446Z,97.40
2019-04-13T10:17:29.038Z,97.20
2019-04-13T10:19:56.035Z,98.20
2019-04-13T10:22:24.638Z,95.90
2019-04-13T10:24:52.400Z,95.60
2019-04-13T10:27:19.973Z,95.30
2019-04-13T10:29:49.433Z,95.50
2019-04-13T10:32:16.010Z,95.80
2019-04-13T10:34:42.894Z,95.10
2019-04-13T10:37:09.903Z,93.90
2019-04-13T10:39:36.792Z,92.90
2019-04-13T10:42:03.947Z,92.60
2019-04-13T10:44:51.928Z,92.90
2019-04-13T10:47:41.498Z,90.20
2019-04-13T10:50:17.700Z,89.60
2019-04-13T10:52:44.800Z,86.80
2019-04-13T10:55:11.833Z,84.20
2019-04-13T10:57:38.962Z,85.00
2019-04-13T11:00:07.566Z,85.30
2019-04-13T11:02:34.463Z,88.10
2019-04-13T11:05:01.444Z,91.10
2019-04-13T11:07:28.323Z,91.10
2019-04-13T11:09:55.269Z,90.50
2019-04-13T11:12:22.237Z,90.40
2019-04-13T11:14:49.332Z,91.60
2019-04-13T11:17:16.357Z,91.10
2019-04-13T11:19:43.298Z,89.80
2019-04-13T11:22:10.302Z,90.30
2019-04-13T11:24:37.383Z,85.50
2019-04-13T11:27:04.862Z,89.30
2019-04-13T11:29:32.179Z,90.70
2019-04-13T11:31:59.151Z,88.50
2019-04-13T11:34:30.037Z,89.20
2019-04-13T11:36:56.005Z,85.00
2019-04-13T11:39:33.277Z,85.30
2019-04-13T11:42:06.340Z,87.50
2019-04-13T11:44:52.991Z,89.60
2019-04-13T11:47:52.074Z,88.40
2019-04-13T11:50:22.875Z,84.10
2019-04-13T11:52:49.954Z,78.20
2019-04-13T11:55:16.871Z,76.70
2019-04-13T11:57:46.779Z,75.70
2019-04-13T12:00:47.577Z,74.50
2019-04-13T12:03:37.793Z,70.10
2019-04-13T12:06:11.892Z,73.90
2019-04-13T12:08:48.597Z,70.60
2019-04-13T12:11:40.722Z,70.40
2019-04-13T12:14:25.272Z,72.80
2019-04-13T12:17:14.353Z,68.90
2019-04-13T12:19:55.182Z,65.50
2019-04-13T12:22:27.740Z,66.60
2019-04-13T12:24:54.729Z,67.40
2019-04-13T12:27:21.700Z,67.40
2019-04-13T12:29:48.580Z,61.90
2019-04-13T12:32:23.662Z,61.00
2019-04-13T12:34:50.262Z,60.10
2019-04-13T12:37:17.431Z,62.80
2019-04-13T12:39:46.149Z,62.40
2019-04-13T12:42:13.124Z,65.90
2019-04-13T12:44:40.087Z,66.40
2019-04-13T12:47:10.159Z,65.40
2019-04-13T12:49:37.905Z,61.70
2019-04-13T12:52:04.822Z,60.40
2019-04-13T12:54:36.771Z,61.80
2019-04-13T12:57:00.955Z,63.70
2019-04-13T12:59:28.245Z,66.30
2019-04-13T13:02:08.928Z,64.40
2019-04-13T13:05:02.108Z,65.70
2019-04-13T13:07:29.041Z,68.00
2019-04-13T13:09:56.477Z,68.30
2019-04-13T13:12:23.355Z,67.90
2019-04-13T13:14:50.274Z,69.90
2019-04-13T13:17:18.378Z,68.20
2019-04-13T13:19:46.787Z,67.50
2019-04-13T13:22:15.900Z,68.10
2019-04-13T13:24:43.367Z,67.60
2019-04-13T13:27:10.847Z,64.60
2019-04-13T13:29:37.715Z,64.80
2019-04-13T13:32:04.580Z,68.10
2019-04-13T13:34:31.614Z,66.00
2019-04-13T13:36:58.503Z,68.60
2019-04-13T13:39:25.596Z,63.20
2019-04-13T13:41:52.525Z,63.70
2019-04-13T13:44:19.997Z,62.80
2019-04-13T13:46:51.221Z,64.20
2019-04-13T13:49:16.176Z,67.00
2019-04-13T13:51:55.278Z,64.70
2019-04-13T13:54:13.276Z,64.90
2019-04-13T13:56:41.156Z,63.90
2019-04-13T13:59:08.389Z,66.40
2019-04-13T14:01:56.952Z,66.40
2019-04-13T14:04:23.950Z,66.30
2019-04-13T14:06:51.096Z,67.00
2019-04-13T14:09:18.095Z,66.40
2019-04-13T14:11:45.078Z,63.60
2019-04-13T14:14:12.078Z,63.90
2019-04-13T14:16:39.160Z,61.50
2019-04-13T14:19:06.206Z,61.90
2019-04-13T14:21:33.434Z,59.50
2019-04-13T14:24:00.395Z,59.40
2019-04-13T14:26:28.254Z,60.00
2019-04-13T14:28:55.110Z,61.50
2019-04-13T14:31:22.148Z,63.50
2019-04-13T14:33:49.147Z,63.40
2019-04-13T14:36:16.140Z,62.40
2019-04-13T14:38:43.003Z,62.30
2019-04-13T14:41:10.569Z,64.40
2019-04-13T14:43:38.676Z,64.30
2019-04-13T14:46:07.044Z,67.50
2019-04-13T14:48:34.407Z,68.00
2019-04-13T14:51:01.435Z,65.50
2019-04-13T14:53:28.640Z,67.10
2019-04-13T14:55:58.085Z,68.10
2019-04-13T14:58:25.059Z,68.90
2019-04-13T15:00:52.127Z,71.70
2019-04-13T15:03:19.411Z,72.10
2019-04-13T15:05:48.243Z,75.30
2019-04-13T15:08:15.524Z,75.80
2019-04-13T15:10:42.532Z,74.60
2019-04-13T15:13:09.433Z,75.20
2019-04-13T15:15:39.367Z,74.50
2019-04-13T15:18:30.867Z,74.00
2019-04-13T15:20:58.769Z,74.70
2019-04-13T15:23:27.746Z,74.10
2019-04-13T15:25:55.001Z,74.30
2019-04-13T15:28:22.001Z,74.90
2019-04-13T15:30:51.943Z,73.60
2019-04-13T15:33:20.220Z,74.70
2019-04-13T15:35:53.054Z,73.40
2019-04-13T15:38:20.565Z,70.30
2019-04-13T15:40:48.512Z,71.50
2019-04-13T15:43:21.895Z,74.10
2019-04-13T15:45:47.940Z,75.10
2019-04-13T15:48:13.871Z,74.10
2019-04-13T15:50:40.874Z,72.50
2019-04-13T15:53:09.442Z,74.70
2019-04-13T15:55:37.433Z,76.10
2019-04-13T15:58:04.526Z,72.90
2019-04-13T16:00:32.191Z,70.90
2019-04-13T16:03:00.555Z,73.80
2019-04-13T16:05:28.751Z,71.50
2019-04-13T16:07:55.773Z,73.70
2019-04-13T16:10:42.960Z,73.00
2019-04-13T16:13:13.009Z,69.40
2019-04-13T16:15:40.405Z,71.90
2019-04-13T16:18:07.381Z,72.90
2019-04-13T16:20:34.363Z,74.50
2019-04-13T16:23:02.482Z,71.90
2019-04-13T16:25:31.174Z,74.90
2019-04-13T16:28:09.661Z,75.80
2019-04-13T16:31:00.986Z,77.20
2019-04-13T16:33:41.275Z,77.50
2019-04-13T16:36:16.685Z,77.00
2019-04-13T16:38:54.743Z,77.50
2019-04-13T16:41:13.474Z,75.60
2019-04-13T16:43:43.470Z,77.50
2019-04-13T16:46:15.770Z,75.90
2019-04-13T16:49:09.574Z,77.00
2019-04-13T16:51:47.738Z,77.40
2019-04-13T16:54:21.131Z,79.60
2019-04-13T16:56:57.326Z,80.40
2019-04-13T16:59:44.913Z,80.70
2019-04-13T17:02:32.066Z,81.30
2019-04-13T17:05:03.350Z,81.60
2019-04-13T17:07:31.776Z,82.90
2019-04-13T17:09:59.997Z,83.60
2019-04-13T17:12:34.265Z,81.50
2019-04-13T17:14:56.767Z,82.00
2019-04-13T17:17:24.266Z,81.80
2019-04-13T17:20:05.684Z,85.30
2019-04-13T17:22:56.261Z,87.00
2019-04-13T17:25:43.877Z,90.40
2019-04-13T17:28:29.408Z,91.10
2019-04-13T17:31:26.327Z,92.10
2019-04-13T17:34:04.736Z,91.40
2019-04-13T17:36:33.987Z,92.10
2019-04-13T17:39:02.146Z,91.80
2019-04-13T17:41:57.012Z,89.80
2019-04-13T17:44:29.549Z,91.80
2019-04-13T17:47:17.974Z,91.10
2019-04-13T17:50:03.766Z,93.20
2019-04-13T17:52:50.599Z,92.50
2019-04-13T17:55:36.107Z,91.80
2019-04-13T17:58:23.194Z,92.30
2019-04-13T18:01:10.224Z,92.10
2019-04-13T18:03:54.134Z,91.70
2019-04-13T18:06:35.781Z,91.90
2019-04-13T18:09:41.546Z,92.30
2019-04-13T18:12:41.551Z,92.90
2019-04-13T18:15:21.763Z,93.40
2019-04-13T18:18:12.411Z,94.50
2019-04-13T18:20:40.862Z,94.90
2019-04-13T18:23:08.975Z,95.80
2019-04-13T18:25:44.145Z,95.60
2019-04-13T18:28:04.958Z,93.50
2019-04-13T18:30:36.170Z,93.20
2019-04-13T18:33:01.237Z,92.80
2019-04-13T18:35:28.282Z,91.80
2019-04-13T18:37:56.015Z,91.80
2019-04-13T18:40:24.312Z,91.80
2019-04-13T18:43:04.226Z,91.80
2019-04-13T18:45:22.126Z,92.10
2019-04-13T18:47:49.293Z,91.80
2019-04-13T18:50:16.609Z,92.40
2019-04-13T18:52:44.499Z,94.00
2019-04-13T18:55:12.328Z,94.30
2019-04-13T18:57:40.387Z,94.30
2019-04-13T19:00:10.089Z,95.60
2019-04-13T19:02:37.725Z,95.40
2019-04-13T19:05:05.541Z,96.30
2019-04-13T19:07:33.170Z,99.90
2019-04-13T19:10:00.081Z,99.90
2019-04-13T19:12:27.901Z,99.90
2019-04-13T19:14:54.832Z,99.90
2019-04-13T19:17:21.843Z,99.90
2019-04-13T19:19:49.784Z,99.90
2019-04-13T19:22:16.702Z,99.90
2019-04-13T19:24:43.582Z,99.90
2019-04-13T19:27:10.738Z,99.90
2019-04-13T19:29:37.774Z,99.90
2019-04-13T19:32:04.785Z,99.90
2019-04-13T19:34:31.847Z,99.90
2019-04-13T19:36:59.070Z,99.90
2019-04-13T19:39:26.085Z,99.90
2019-04-13T19:41:53.191Z,99.90
2019-04-13T19:44:20.467Z,99.90
2019-04-13T19:46:47.370Z,99.90
2019-04-13T19:49:15.150Z,99.90
2019-04-13T19:52:14.133Z,99.90
2019-04-13T19:54:41.333Z,99.90
2019-04-13T19:57:08.232Z,99.90
2019-04-13T19:59:36.126Z,99.90
2019-04-13T20:02:03.757Z,99.90
2019-04-13T20:04:30.842Z,99.90
2019-04-13T20:06:57.807Z,99.90
2019-04-13T20:09:25.201Z,99.90
2019-04-13T20:11:52.128Z,99.90
2019-04-13T20:14:20.756Z,99.90
2019-04-13T20:17:25.735Z,99.90
2019-04-13T20:19:52.628Z,99.90
2019-04-13T20:22:19.563Z,99.90
2019-04-13T20:24:46.820Z,99.90
2019-04-13T20:27:15.139Z,99.90
2019-04-13T20:29:42.730Z,99.90
2019-04-13T20:32:10.225Z,99.90
2019-04-13T20:34:38.010Z,99.90
2019-04-13T20:37:05.668Z,99.90
2019-04-13T20:39:35.178Z,99.90
2019-04-13T20:42:06.686Z,99.90
2019-04-13T20:44:32.276Z,99.90
2019-04-13T20:47:00.190Z,99.90
2019-04-13T20:49:28.067Z,99.90
2019-04-13T20:51:55.234Z,99.90
2019-04-13T20:54:22.250Z,99.90
2019-04-13T20:56:49.223Z,99.90
2019-04-13T20:59:17.126Z,99.90
2019-04-13T21:01:45.315Z,99.90
2019-04-13T21:04:12.978Z,99.90
2019-04-13T21:06:41.286Z,99.90
2019-04-13T21:09:09.829Z,99.90
2019-04-13T21:11:37.404Z,99.90
2019-04-13T21:14:11.298Z,99.90
2019-04-13T21:16:34.580Z,99.90
2019-04-13T21:19:02.540Z,99.90
2019-04-13T21:21:30.258Z,99.90
2019-04-13T21:23:58.110Z,99.90
2019-04-13T21:26:27.059Z,99.90
2019-04-13T21:28:56.063Z,99.90
2019-04-13T21:31:23.997Z,99.90
2019-04-13T21:33:51.865Z,99.90
2019-04-13T21:36:19.545Z,99.90
2019-04-13T21:38:47.355Z,99.90
2019-04-13T21:41:15.087Z,99.90
2019-04-13T21:43:43.241Z,99.90
2019-04-13T21:46:10.849Z,99.90
2019-04-13T21:48:37.852Z,99.90
2019-04-13T21:51:19.100Z,99.90
2019-04-13T21:53:53.541Z,99.90
2019-04-13T21:56:21.136Z,99.90
2019-04-13T21:58:49.108Z,99.90
2019-04-13T22:01:36.588Z,99.90
2019-04-13T22:04:04.988Z,99.90
2019-04-13T22:06:32.061Z,99.90
2019-04-13T22:08:59.937Z,99.90
2019-04-13T22:11:27.676Z,99.90
2019-04-13T22:13:55.691Z,99.90
2019-04-13T22:16:23.389Z,99.90
2019-04-13T22:18:50.393Z,99.90
2019-04-13T22:21:17.712Z,99.90
2019-04-13T22:23:45.377Z,99.90
2019-04-13T22:26:13.063Z,99.90
2019-04-13T22:29:02.869Z,99.90
2019-04-13T22:31:48.293Z,99.90
2019-04-13T22:34:35.765Z,99.90
2019-04-13T22:37:03.878Z,99.90
2019-04-13T22:39:31.351Z,99.90
2019-04-13T22:41:59.279Z,99.90
2019-04-13T22:44:40.413Z,99.90
2019-04-13T22:46:55.354Z,99.90
2019-04-13T22:49:27.846Z,99.90
2019-04-13T22:52:21.423Z,99.90
2019-04-13T22:54:55.986Z,99.90
2019-04-13T22:57:37.750Z,99.90
2019-04-13T23:00:13.014Z,99.90
2019-04-13T23:02:47.409Z,99.90
2019-04-13T23:05:15.475Z,99.90
2019-04-13T23:07:43.414Z,99.90
2019-04-13T23:10:11.376Z,99.90
2019-04-13T23:12:38.340Z,99.90
2019-04-13T23:15:16.945Z,99.90
2019-04-13T23:17:35.503Z,99.90
2019-04-13T23:20:03.616Z,99.90
2019-04-13T23:22:30.520Z,99.90
2019-04-13T23:24:58.246Z,99.90
2019-04-13T23:27:26.265Z,99.90
2019-04-13T23:29:54.275Z,99.90
2019-04-13T23:32:22.581Z,99.90
2019-04-13T23:34:50.778Z,99.90
2019-04-13T23:37:19.006Z,99.90
2019-04-13T23:39:47.330Z,99.90
2019-04-13T23:42:14.346Z,99.90
2019-04-13T23:44:42.060Z,99.90
2019-04-13T23:47:10.049Z,99.90
2019-04-13T23:49:38.466Z,99.90
2019-04-13T23:52:06.440Z,99.90
2019-04-13T23:54:34.597Z,99.90
2019-04-13T23:57:25.229Z,99.90
